createdAt,value
2024-05-09T00:00:15.492Z,0
2024-05-09T00:01:09.062Z,0
2024-05-09T00:02:09.087Z,0
2024-05-09T00:03:10.639Z,0
2024-05-09T00:04:09.145Z,0
2024-05-09T00:05:09.213Z,0
2024-05-09T00:06:09.186Z,0
2024-05-09T00:07:09.051Z,0
2024-05-09T00:08:09.127Z,0
2024-05-09T00:09:09.036Z,0
2024-05-09T00:10:14.521Z,0
2024-05-09T00:11:09.167Z,0
2024-05-09T00:12:09.268Z,0
2024-05-09T00:13:09.502Z,0
2024-05-09T00:14:09.073Z,0
2024-05-09T00:15:09.051Z,0
2024-05-09T00:16:09.043Z,0
2024-05-09T00:17:09.052Z,0
2024-05-09T00:18:09.446Z,0
2024-05-09T00:19:09.141Z,0
2024-05-09T00:20:14.232Z,0
2024-05-09T00:21:09.279Z,0
2024-05-09T00:22:09.054Z,0
2024-05-09T00:23:09.547Z,0
2024-05-09T00:24:09.040Z,0
2024-05-09T00:25:09.037Z,0
2024-05-09T00:26:09.106Z,0
2024-05-09T00:27:11.353Z,0
2024-05-09T00:28:09.066Z,0
2024-05-09T00:29:09.130Z,0
2024-05-09T00:30:14.343Z,0
2024-05-09T00:31:09.036Z,0
2024-05-09T00:32:09.097Z,0
2024-05-09T00:33:10.499Z,0
2024-05-09T00:34:09.263Z,0
2024-05-09T00:35:09.178Z,0
2024-05-09T00:36:09.036Z,0
2024-05-09T00:37:09.060Z,0
2024-05-09T00:38:09.149Z,0
2024-05-09T00:39:09.060Z,0
2024-05-09T00:41:09.054Z,0
2024-05-09T00:42:09.043Z,0
2024-05-09T00:43:09.093Z,0
2024-05-09T00:44:09.110Z,0
2024-05-09T00:45:09.045Z,0
2024-05-09T00:46:09.030Z,0
2024-05-09T00:47:09.173Z,0
2024-05-09T00:48:10.189Z,0
2024-05-09T00:49:09.096Z,0
2024-05-09T00:50:15.441Z,0
2024-05-09T00:51:09.085Z,0
2024-05-09T00:52:09.044Z,0
2024-05-09T00:53:09.110Z,0
2024-05-09T00:54:09.047Z,0
2024-05-09T00:55:09.043Z,0
2024-05-09T00:56:09.121Z,0
2024-05-09T00:57:09.056Z,0
2024-05-09T00:58:09.135Z,0
2024-05-09T00:59:09.100Z,0
2024-05-09T01:00:18.435Z,0
2024-05-09T01:01:09.095Z,0
2024-05-09T01:02:09.137Z,0
2024-05-09T01:04:09.308Z,0
2024-05-09T01:05:09.116Z,0
2024-05-09T01:06:09.038Z,0
2024-05-09T01:07:09.039Z,0
2024-05-09T01:08:09.559Z,0
2024-05-09T01:09:09.048Z,0
2024-05-09T01:10:14.021Z,0
2024-05-09T01:11:09.109Z,0
2024-05-09T01:12:09.360Z,0
2024-05-09T01:13:09.061Z,0
2024-05-09T01:14:09.136Z,0
2024-05-09T01:15:09.039Z,0
2024-05-09T01:16:09.055Z,0
2024-05-09T01:17:09.073Z,0
2024-05-09T01:18:09.588Z,0
2024-05-09T01:19:09.142Z,0
2024-05-09T01:20:10.990Z,0
2024-05-09T01:21:09.049Z,0
2024-05-09T01:22:09.043Z,0
2024-05-09T01:23:09.425Z,0
2024-05-09T01:24:09.037Z,0
2024-05-09T01:25:09.058Z,0
2024-05-09T01:26:09.081Z,0
2024-05-09T01:27:09.041Z,0
2024-05-09T01:28:09.061Z,0
2024-05-09T01:29:09.141Z,0
2024-05-09T01:30:09.624Z,0
2024-05-09T01:31:09.030Z,0
2024-05-09T01:32:09.199Z,0
2024-05-09T01:33:10.899Z,0
2024-05-09T01:34:09.156Z,0
2024-05-09T01:35:09.127Z,0
2024-05-09T01:36:09.054Z,0
2024-05-09T01:37:09.056Z,0
2024-05-09T01:38:09.105Z,0
2024-05-09T01:39:09.071Z,0
2024-05-09T01:40:12.371Z,0
2024-05-09T01:41:09.093Z,0
2024-05-09T01:42:09.061Z,0
2024-05-09T01:43:10.215Z,0
2024-05-09T01:44:09.074Z,0
2024-05-09T01:45:09.051Z,0
2024-05-09T01:46:09.051Z,0
2024-05-09T01:47:09.111Z,0
2024-05-09T01:48:09.614Z,0
2024-05-09T01:49:09.228Z,0
2024-05-09T01:50:10.978Z,0
2024-05-09T01:51:09.221Z,0
2024-05-09T01:52:09.059Z,0
2024-05-09T01:53:09.234Z,0
2024-05-09T01:54:09.039Z,0
2024-05-09T01:55:09.049Z,0
2024-05-09T01:56:09.081Z,0
2024-05-09T01:57:09.055Z,0
2024-05-09T01:58:09.131Z,0
2024-05-09T01:59:09.113Z,0
2024-05-09T02:00:10.327Z,0
2024-05-09T02:01:09.153Z,0
2024-05-09T02:02:09.238Z,0
2024-05-09T02:03:09.434Z,0
2024-05-09T02:04:09.205Z,0
2024-05-09T02:05:09.124Z,0
2024-05-09T02:06:09.158Z,0
2024-05-09T02:07:09.053Z,0
2024-05-09T02:08:09.122Z,0
2024-05-09T02:09:09.068Z,0
2024-05-09T02:10:16.181Z,0
2024-05-09T02:11:09.190Z,0
2024-05-09T02:12:09.222Z,0
2024-05-09T02:13:09.055Z,0
2024-05-09T02:14:09.096Z,0
2024-05-09T02:15:09.044Z,0
2024-05-09T02:16:09.036Z,0
2024-05-09T02:17:09.089Z,0
2024-05-09T02:18:09.331Z,0
2024-05-09T02:19:09.179Z,0
2024-05-09T02:20:13.232Z,0
2024-05-09T02:21:09.196Z,0
2024-05-09T02:22:09.053Z,0
2024-05-09T02:23:09.431Z,0
2024-05-09T02:24:09.034Z,0
2024-05-09T02:25:09.046Z,0
2024-05-09T02:26:09.069Z,0
2024-05-09T02:27:09.048Z,0
2024-05-09T02:28:09.096Z,0
2024-05-09T02:29:09.076Z,0
2024-05-09T02:30:18.525Z,0
2024-05-09T02:31:09.044Z,0
2024-05-09T02:32:09.161Z,0
2024-05-09T02:33:10.181Z,0
2024-05-09T02:34:09.158Z,0
2024-05-09T02:35:09.056Z,0
2024-05-09T02:36:09.045Z,0
2024-05-09T02:37:09.058Z,0
2024-05-09T02:38:09.142Z,0
2024-05-09T02:39:09.049Z,0
2024-05-09T02:40:11.616Z,0
2024-05-09T02:41:09.069Z,0
2024-05-09T02:42:09.067Z,0
2024-05-09T02:43:10.631Z,0
2024-05-09T02:44:09.087Z,0
2024-05-09T02:45:09.053Z,0
2024-05-09T02:46:09.037Z,0
2024-05-09T02:47:09.178Z,0
2024-05-09T02:48:09.240Z,0
2024-05-09T02:49:09.188Z,0
2024-05-09T02:50:13.230Z,0
2024-05-09T02:51:09.082Z,0
2024-05-09T02:52:09.052Z,1
2024-05-09T02:53:09.894Z,1
2024-05-09T02:54:09.035Z,1
2024-05-09T02:55:09.041Z,3
2024-05-09T02:56:09.087Z,3
2024-05-09T02:57:09.039Z,5
2024-05-09T02:58:09.063Z,7
2024-05-09T02:59:09.073Z,9
2024-05-09T03:00:15.192Z,9
2024-05-09T03:01:09.084Z,11
2024-05-09T03:02:09.091Z,12
2024-05-09T03:03:10.623Z,14
2024-05-09T03:04:09.171Z,18
2024-05-09T03:05:09.092Z,20
2024-05-09T03:06:09.039Z,23
2024-05-09T03:07:09.051Z,27
2024-05-09T03:08:09.473Z,31
2024-05-09T03:09:09.052Z,36
2024-05-09T03:10:18.171Z,42
2024-05-09T03:11:09.131Z,49
2024-05-09T03:12:09.233Z,55
2024-05-09T03:13:09.312Z,60
2024-05-09T03:14:09.081Z,68
2024-05-09T03:15:09.050Z,75
2024-05-09T03:16:09.043Z,82
2024-05-09T03:17:09.066Z,94
2024-05-09T03:18:09.280Z,105
2024-05-09T03:19:09.131Z,114
2024-05-09T03:20:14.649Z,125
2024-05-09T03:21:09.114Z,136
2024-05-09T03:22:09.046Z,151
2024-05-09T03:23:10.119Z,162
2024-05-09T03:24:09.053Z,176
2024-05-09T03:25:09.041Z,189
2024-05-09T03:26:09.124Z,206
2024-05-09T03:27:09.036Z,223
2024-05-09T03:28:09.068Z,237
2024-05-09T03:29:09.069Z,254
2024-05-09T03:30:09.878Z,272
2024-05-09T03:31:09.050Z,291
2024-05-09T03:32:09.108Z,311
2024-05-09T03:33:09.362Z,331
2024-05-09T03:34:09.065Z,352
2024-05-09T03:35:09.193Z,370
2024-05-09T03:36:11.179Z,370
2024-05-09T03:37:09.060Z,412
2024-05-09T03:38:09.291Z,433
2024-05-09T03:39:09.043Z,458
2024-05-09T03:40:14.513Z,479
2024-05-09T03:41:09.077Z,503
2024-05-09T03:42:09.054Z,530
2024-05-09T03:43:09.066Z,551
2024-05-09T03:44:09.063Z,576
2024-05-09T03:45:09.050Z,600
2024-05-09T03:46:09.040Z,626
2024-05-09T03:47:09.081Z,654
2024-05-09T03:48:09.216Z,680
2024-05-09T03:49:09.241Z,705
2024-05-09T03:50:15.197Z,733
2024-05-09T03:51:09.221Z,759
2024-05-09T03:52:09.063Z,790
2024-05-09T03:53:09.078Z,812
2024-05-09T03:54:09.038Z,844
2024-05-09T03:55:09.046Z,871
2024-05-09T03:56:09.088Z,899
2024-05-09T03:57:09.043Z,925
2024-05-09T03:58:09.044Z,954
2024-05-09T03:59:09.073Z,982
2024-05-09T04:00:14.890Z,1010
2024-05-09T04:01:09.056Z,1039
2024-05-09T04:02:09.119Z,1069
2024-05-09T04:03:11.408Z,1104
2024-05-09T04:04:09.154Z,1126
2024-05-09T04:05:09.056Z,1157
2024-05-09T04:06:09.043Z,1188
2024-05-09T04:07:09.048Z,1218
2024-05-09T04:08:09.204Z,1251
2024-05-09T04:09:09.041Z,1282
2024-05-09T04:10:13.894Z,1306
2024-05-09T04:11:09.139Z,1334
2024-05-09T04:12:09.152Z,1365
2024-05-09T04:13:09.060Z,1389
2024-05-09T04:14:09.107Z,1413
2024-05-09T04:15:12.169Z,1439
2024-05-09T04:16:09.052Z,1467
2024-05-09T04:17:09.083Z,1489
2024-05-09T04:18:09.230Z,1515
2024-05-09T04:19:09.215Z,1539
2024-05-09T04:20:12.436Z,1553
2024-05-09T04:21:09.133Z,1590
2024-05-09T04:22:09.051Z,1603
2024-05-09T04:23:09.635Z,1631
2024-05-09T04:24:09.047Z,1655
2024-05-09T04:25:09.046Z,1681
2024-05-09T04:26:09.109Z,1710
2024-05-09T04:27:09.048Z,1725
2024-05-09T04:28:09.062Z,1752
2024-05-09T04:29:09.063Z,1776
2024-05-09T04:30:15.438Z,1800
2024-05-09T04:31:09.056Z,1828
2024-05-09T04:32:09.142Z,1848
2024-05-09T04:33:11.415Z,1887
2024-05-09T04:34:09.291Z,1900
2024-05-09T04:35:09.064Z,1926
2024-05-09T04:36:09.052Z,1926
2024-05-09T04:37:09.051Z,1990
2024-05-09T04:38:09.116Z,2010
2024-05-09T04:39:09.054Z,2033
2024-05-09T04:40:14.050Z,2057
2024-05-09T04:41:09.113Z,2073
2024-05-09T04:42:09.054Z,2093
2024-05-09T04:43:09.051Z,2114
2024-05-09T04:44:09.050Z,2134
2024-05-09T04:45:09.045Z,2160
2024-05-09T04:46:09.044Z,2182
2024-05-09T04:47:09.060Z,2193
2024-05-09T04:48:09.484Z,2232
2024-05-09T04:49:09.152Z,2233
2024-05-09T04:50:11.809Z,2267
2024-05-09T04:51:09.131Z,2289
2024-05-09T04:52:09.059Z,2305
2024-05-09T04:53:10.544Z,2313
2024-05-09T04:54:15.625Z,2335
2024-05-09T04:55:09.044Z,2351
2024-05-09T04:56:09.103Z,2374
2024-05-09T04:57:09.053Z,2383
2024-05-09T04:58:09.151Z,2403
2024-05-09T04:59:09.078Z,2416
2024-05-09T05:00:14.721Z,2433
2024-05-09T05:01:09.063Z,2445
2024-05-09T05:02:09.226Z,2466
2024-05-09T05:03:10.756Z,2492
2024-05-09T05:04:09.134Z,2501
2024-05-09T05:05:09.384Z,2521
2024-05-09T05:06:09.077Z,2550
2024-05-09T05:07:09.036Z,2552
2024-05-09T05:08:09.077Z,2569
2024-05-09T05:09:09.046Z,2589
2024-05-09T05:10:11.920Z,2606
2024-05-09T05:11:09.102Z,2622
2024-05-09T05:12:09.254Z,2650
2024-05-09T05:13:09.061Z,2656
2024-05-09T05:14:09.075Z,2672
2024-05-09T05:15:09.044Z,2700
2024-05-09T05:16:09.043Z,2707
2024-05-09T05:17:09.119Z,2724
2024-05-09T05:18:09.234Z,2757
2024-05-09T05:19:11.463Z,2774
2024-05-09T05:20:12.711Z,2785
2024-05-09T05:21:09.100Z,2794
2024-05-09T05:22:09.052Z,2809
2024-05-09T05:23:09.083Z,2816
2024-05-09T05:24:09.046Z,2831
2024-05-09T05:25:09.040Z,2862
2024-05-09T05:26:09.114Z,2880
2024-05-09T05:27:09.043Z,2888
2024-05-09T05:28:09.088Z,2917
2024-05-09T05:29:09.089Z,2925
2024-05-09T05:30:14.735Z,2945
2024-05-09T05:31:09.033Z,2967
2024-05-09T05:32:09.134Z,2982
2024-05-09T05:33:09.128Z,3011
2024-05-09T05:34:09.096Z,3067
2024-05-09T05:35:09.080Z,3057
2024-05-09T05:36:09.052Z,3057
2024-05-09T05:37:09.045Z,3094
2024-05-09T05:38:09.178Z,3129
2024-05-09T05:39:09.038Z,3144
2024-05-09T05:40:11.907Z,3186
2024-05-09T05:41:09.040Z,3201
2024-05-09T05:42:09.051Z,3231
2024-05-09T05:43:09.372Z,3273
2024-05-09T05:44:09.067Z,3321
2024-05-09T05:45:09.960Z,3371
2024-05-09T05:46:09.039Z,3437
2024-05-09T05:47:09.123Z,3551
2024-05-09T05:48:09.142Z,3695
2024-05-09T05:49:09.123Z,3867
2024-05-09T05:50:20.494Z,4007
2024-05-09T05:51:09.175Z,4184
2024-05-09T05:52:09.053Z,4243
2024-05-09T05:53:09.850Z,4440
2024-05-09T05:54:09.040Z,4464
2024-05-09T05:55:09.045Z,4539
2024-05-09T05:56:09.118Z,4600
2024-05-09T05:57:09.048Z,4644
2024-05-09T05:58:09.035Z,4676
2024-05-09T05:59:09.607Z,4748
2024-05-09T06:00:09.826Z,4812
2024-05-09T06:01:09.061Z,4860
2024-05-09T06:02:09.176Z,4893
2024-05-09T06:03:09.956Z,4890
2024-05-09T06:04:09.135Z,4819
2024-05-09T06:05:09.112Z,4805
2024-05-09T06:06:09.122Z,4810
2024-05-09T06:07:09.055Z,4930
2024-05-09T06:08:09.448Z,4842
2024-05-09T06:09:09.036Z,4917
2024-05-09T06:10:17.254Z,4948
2024-05-09T06:11:09.098Z,5006
2024-05-09T06:12:09.248Z,5017
2024-05-09T06:13:09.040Z,5079
2024-05-09T06:14:09.074Z,5055
2024-05-09T06:15:09.039Z,5277
2024-05-09T06:16:09.048Z,5328
2024-05-09T06:17:09.088Z,5354
2024-05-09T06:18:09.927Z,5360
2024-05-09T06:19:09.141Z,5382
2024-05-09T06:20:16.648Z,5400
2024-05-09T06:21:09.141Z,5483
2024-05-09T06:22:09.052Z,5586
2024-05-09T06:23:09.830Z,5645
2024-05-09T06:24:09.030Z,5660
2024-05-09T06:25:09.041Z,5763
2024-05-09T06:26:09.103Z,5793
2024-05-09T06:27:09.056Z,5831
2024-05-09T06:28:09.039Z,5898
2024-05-09T06:29:09.058Z,5804
2024-05-09T06:30:14.418Z,5760
2024-05-09T06:31:09.051Z,5771
2024-05-09T06:32:09.107Z,5892
2024-05-09T06:33:10.083Z,5964
2024-05-09T06:34:09.291Z,5922
2024-05-09T06:35:09.061Z,5879
2024-05-09T06:36:09.036Z,5879
2024-05-09T06:37:09.072Z,5890
2024-05-09T06:38:09.694Z,5822
2024-05-09T06:39:09.060Z,6029
2024-05-09T06:40:09.964Z,5973
2024-05-09T06:41:09.068Z,5933
2024-05-09T06:42:09.057Z,5999
2024-05-09T06:43:09.062Z,6086
2024-05-09T06:44:09.059Z,6062
2024-05-09T06:45:09.045Z,6100
2024-05-09T06:46:09.045Z,6171
2024-05-09T06:47:09.190Z,5785
2024-05-09T06:48:09.575Z,6379
2024-05-09T06:49:09.256Z,6825
2024-05-09T06:50:16.342Z,7708
2024-05-09T06:51:09.147Z,8873
2024-05-09T06:52:09.047Z,7171
2024-05-09T06:53:09.384Z,7697
2024-05-09T06:54:09.054Z,7723
2024-05-09T06:55:09.035Z,9059
2024-05-09T06:56:09.078Z,9343
2024-05-09T06:57:09.050Z,9308
2024-05-09T06:58:09.140Z,8803
2024-05-09T06:59:09.084Z,8939
2024-05-09T07:00:12.880Z,9615
2024-05-09T07:01:09.054Z,9641
2024-05-09T07:02:09.163Z,9977
2024-05-09T07:03:09.465Z,9634
2024-05-09T07:04:09.317Z,9776
2024-05-09T07:05:09.108Z,10063
2024-05-09T07:06:09.181Z,10227
2024-05-09T07:07:09.067Z,10244
2024-05-09T07:08:09.164Z,10535
2024-05-09T07:09:09.057Z,9521
2024-05-09T07:10:12.261Z,10723
2024-05-09T07:11:09.112Z,10567
2024-05-09T07:12:09.255Z,10272
2024-05-09T07:13:09.044Z,9737
2024-05-09T07:14:09.063Z,9623
2024-05-09T07:15:09.049Z,10318
2024-05-09T07:16:09.041Z,10629
2024-05-09T07:17:09.333Z,10622
2024-05-09T07:18:09.160Z,11252
2024-05-09T07:19:09.376Z,10119
2024-05-09T07:20:11.730Z,10419
2024-05-09T07:21:09.060Z,11005
2024-05-09T07:22:09.057Z,10972
2024-05-09T07:23:09.145Z,11099
2024-05-09T07:24:09.079Z,11112
2024-05-09T07:25:09.041Z,11179
2024-05-09T07:26:09.084Z,11103
2024-05-09T07:27:09.061Z,11061
2024-05-09T07:28:09.041Z,11331
2024-05-09T07:29:09.074Z,11484
2024-05-09T07:30:11.562Z,11577
2024-05-09T07:31:09.049Z,11562
2024-05-09T07:32:09.134Z,11610
2024-05-09T07:33:09.197Z,11766
2024-05-09T07:34:09.148Z,11731
2024-05-09T07:35:09.108Z,12072
2024-05-09T07:36:09.045Z,12072
2024-05-09T07:37:09.053Z,11892
2024-05-09T07:38:09.175Z,11108
2024-05-09T07:39:09.061Z,11475
2024-05-09T07:40:12.027Z,11313
2024-05-09T07:41:09.106Z,12058
2024-05-09T07:42:09.061Z,12148
2024-05-09T07:43:09.047Z,12458
2024-05-09T07:44:09.095Z,12883
2024-05-09T07:45:29.593Z,13483
2024-05-09T07:47:13.854Z,14754
2024-05-09T07:48:14.717Z,14935
2024-05-09T07:53:36.910Z,7888
2024-05-09T07:54:09.459Z,7352
2024-05-09T07:55:09.170Z,8196
2024-05-09T07:56:10.204Z,8342
2024-05-09T07:57:09.159Z,7004
2024-05-09T07:58:09.155Z,6816
2024-05-09T07:59:09.041Z,6703
2024-05-09T08:00:11.836Z,6681
2024-05-09T08:01:09.087Z,6563
2024-05-09T08:02:09.348Z,6432
2024-05-09T08:03:09.054Z,6309
2024-05-09T08:04:09.137Z,6231
2024-05-09T08:05:09.258Z,6176
2024-05-09T08:06:09.042Z,6008
2024-05-09T08:07:09.268Z,5769
2024-05-09T08:08:09.060Z,5702
2024-05-09T08:09:13.855Z,5708
2024-05-09T08:10:12.745Z,5715
2024-05-09T08:11:09.082Z,5667
2024-05-09T08:12:09.047Z,5634
2024-05-09T08:13:09.058Z,5619
2024-05-09T08:14:09.043Z,5559
2024-05-09T08:15:09.036Z,5564
2024-05-09T08:16:09.108Z,5583
2024-05-09T08:17:09.180Z,5693
2024-05-09T08:18:09.182Z,5795
2024-05-09T08:19:09.081Z,5892
2024-05-09T08:20:09.838Z,6167
2024-05-09T08:21:09.033Z,6524
2024-05-09T08:22:09.147Z,7435
2024-05-09T08:23:09.062Z,9256
2024-05-09T08:24:09.066Z,11650
2024-05-09T08:25:10.670Z,12445
2024-05-09T08:26:09.039Z,12627
2024-05-09T08:27:09.074Z,7404
2024-05-09T08:28:09.310Z,7177
2024-05-09T08:29:09.041Z,7083
2024-05-09T08:30:15.455Z,6967
2024-05-09T08:31:09.102Z,6991
2024-05-09T08:32:09.075Z,7015
2024-05-09T08:33:09.114Z,11313
2024-05-09T08:34:09.183Z,11116
2024-05-09T08:35:09.055Z,15057
2024-05-09T08:36:09.031Z,15057
2024-05-09T08:37:13.267Z,16026
2024-05-09T08:38:09.110Z,16264
2024-05-09T08:39:09.050Z,16242
2024-05-09T08:40:16.598Z,11357
2024-05-09T08:41:09.037Z,9372
2024-05-09T08:42:09.050Z,16245
2024-05-09T08:43:10.812Z,15986
2024-05-09T08:44:09.051Z,15934
2024-05-09T08:45:09.035Z,15958
2024-05-09T08:46:09.117Z,11630
2024-05-09T08:47:09.194Z,12570
2024-05-09T08:48:09.258Z,15599
2024-05-09T08:49:09.178Z,13105
2024-05-09T08:50:16.715Z,16059
2024-05-09T08:51:09.028Z,14509
2024-05-09T08:52:09.065Z,15796
2024-05-09T08:53:09.373Z,15954
2024-05-09T08:54:09.054Z,15836
2024-05-09T08:55:09.139Z,15422
2024-05-09T08:56:09.038Z,15291
2024-05-09T08:57:09.041Z,15722
2024-05-09T08:58:09.191Z,15728
2024-05-09T08:59:09.046Z,15939
2024-05-09T09:00:12.730Z,15753
2024-05-09T09:01:09.224Z,15834
2024-05-09T09:02:09.215Z,15947
2024-05-09T09:03:09.318Z,15927
2024-05-09T09:04:09.139Z,15768
2024-05-09T09:05:09.230Z,16024
2024-05-09T09:06:09.045Z,16126
2024-05-09T09:07:09.169Z,16161
2024-05-09T09:08:09.160Z,14467
2024-05-09T09:09:09.058Z,9789
2024-05-09T09:10:09.101Z,10069
2024-05-09T09:11:09.076Z,12323
2024-05-09T09:12:10.714Z,15731
2024-05-09T09:13:09.613Z,16339
2024-05-09T09:14:09.037Z,16334
2024-05-09T09:15:09.044Z,11678
2024-05-09T09:16:09.130Z,16520
2024-05-09T09:17:09.078Z,16662
2024-05-09T09:18:12.218Z,15674
2024-05-09T09:19:09.177Z,16061
2024-05-09T09:20:14.084Z,15693
2024-05-09T09:21:09.050Z,14917
2024-05-09T09:22:09.206Z,15998
2024-05-09T09:23:09.042Z,16124
2024-05-09T09:24:09.898Z,16806
2024-05-09T09:25:09.058Z,16422
2024-05-09T09:26:09.060Z,15892
2024-05-09T09:27:09.052Z,15825
2024-05-09T09:28:09.454Z,16456
2024-05-09T09:29:09.041Z,16349
2024-05-09T09:30:22.841Z,16236
2024-05-09T09:31:09.096Z,16192
2024-05-09T09:32:09.034Z,15875
2024-05-09T09:33:09.170Z,16122
2024-05-09T09:34:09.283Z,16081
2024-05-09T09:35:09.091Z,16131
2024-05-09T09:36:11.541Z,16131
2024-05-09T09:37:09.316Z,15766
2024-05-09T09:38:09.043Z,15884
2024-05-09T09:39:09.083Z,14273
2024-05-09T09:40:12.836Z,15868
2024-05-09T09:41:09.127Z,15326
2024-05-09T09:42:09.031Z,12895
2024-05-09T09:43:09.130Z,15840
2024-05-09T09:44:09.031Z,15440
2024-05-09T09:45:09.029Z,8263
2024-05-09T09:46:12.322Z,8071
2024-05-09T09:47:09.095Z,7960
2024-05-09T09:48:09.118Z,7593
2024-05-09T09:49:09.151Z,9101
2024-05-09T09:50:14.302Z,7756
2024-05-09T09:51:09.042Z,9569
2024-05-09T09:52:10.987Z,7332
2024-05-09T09:53:09.038Z,6976
2024-05-09T09:54:09.047Z,6700
2024-05-09T09:55:09.102Z,6591
2024-05-09T09:56:09.126Z,6441
2024-05-09T09:57:09.071Z,6257
2024-05-09T09:58:11.979Z,6143
2024-05-09T09:59:09.031Z,6088
2024-05-09T10:00:11.807Z,6113
2024-05-09T10:01:09.099Z,6172
2024-05-09T10:02:09.469Z,6253
2024-05-09T10:03:09.110Z,6117
2024-05-09T10:04:09.184Z,6156
2024-05-09T10:05:09.121Z,6283
2024-05-09T10:06:09.136Z,6578
2024-05-09T10:07:09.140Z,6781
2024-05-09T10:08:09.035Z,7011
2024-05-09T10:09:09.114Z,7112
2024-05-09T10:10:11.039Z,7459
2024-05-09T10:11:09.163Z,8051
2024-05-09T10:12:09.613Z,9796
2024-05-09T10:13:09.256Z,9822
2024-05-09T10:14:09.040Z,11652
2024-05-09T10:15:09.044Z,14559
2024-05-09T10:16:09.223Z,16312
2024-05-09T10:17:09.054Z,17176
2024-05-09T10:18:09.265Z,17104
2024-05-09T10:19:09.121Z,16992
2024-05-09T10:20:14.931Z,17053
2024-05-09T10:21:09.052Z,17069
2024-05-09T10:22:09.197Z,17005
2024-05-09T10:23:09.039Z,17180
2024-05-09T10:24:09.144Z,17429
2024-05-09T10:25:09.128Z,17493
2024-05-09T10:26:09.047Z,17123
2024-05-09T10:27:09.037Z,12959
2024-05-09T10:28:09.120Z,17025
2024-05-09T10:29:09.036Z,16198
2024-05-09T10:30:14.594Z,16800
2024-05-09T10:31:09.237Z,16754
2024-05-09T10:32:09.034Z,12972
2024-05-09T10:33:09.145Z,15453
2024-05-09T10:34:09.171Z,14198
2024-05-09T10:35:09.095Z,15359
2024-05-09T10:36:09.041Z,15359
2024-05-09T10:37:09.093Z,10480
2024-05-09T10:38:09.054Z,15656
2024-05-09T10:39:09.047Z,11577
2024-05-09T10:40:14.129Z,8132
2024-05-09T10:41:09.055Z,13083
2024-05-09T10:42:09.036Z,8991
2024-05-09T10:43:09.038Z,7982
2024-05-09T10:44:09.036Z,7562
2024-05-09T10:45:09.046Z,7251
2024-05-09T10:46:09.315Z,7339
2024-05-09T10:47:09.117Z,7507
2024-05-09T10:48:09.153Z,7503
2024-05-09T10:49:09.203Z,7540
2024-05-09T10:50:18.291Z,7931
2024-05-09T10:51:09.050Z,8622
2024-05-09T10:52:09.194Z,12839
2024-05-09T10:53:09.033Z,10985
2024-05-09T10:54:09.046Z,15737
2024-05-09T10:55:09.067Z,14987
2024-05-09T10:56:09.045Z,16817
2024-05-09T10:57:09.039Z,15372
2024-05-09T10:58:09.144Z,15316
2024-05-09T10:59:09.043Z,16887
2024-05-09T11:00:15.626Z,16850
2024-05-09T11:01:09.354Z,16660
2024-05-09T11:02:09.376Z,16509
2024-05-09T11:03:09.058Z,16668
2024-05-09T11:04:09.180Z,16712
2024-05-09T11:05:09.188Z,16625
2024-05-09T11:06:09.059Z,16686
2024-05-09T11:07:09.086Z,16559
2024-05-09T11:08:09.035Z,16555
2024-05-09T11:09:09.044Z,16692
2024-05-09T11:10:12.503Z,16476
2024-05-09T11:11:09.219Z,16421
2024-05-09T11:12:09.141Z,16505
2024-05-09T11:13:09.106Z,16533
2024-05-09T11:14:09.035Z,16242
2024-05-09T11:15:09.033Z,16234
2024-05-09T11:16:09.084Z,16470
2024-05-09T11:17:09.069Z,15930
2024-05-09T11:18:09.152Z,15873
2024-05-09T11:19:09.153Z,15766
2024-05-09T11:20:13.776Z,15882
2024-05-09T11:21:09.056Z,8135
2024-05-09T11:22:09.186Z,7951
2024-05-09T11:23:09.048Z,7765
2024-05-09T11:24:11.149Z,7839
2024-05-09T11:25:09.116Z,8449
2024-05-09T11:26:09.060Z,14244
2024-05-09T11:27:09.042Z,16122
2024-05-09T11:28:09.102Z,16115
2024-05-09T11:29:09.030Z,16116
2024-05-09T11:30:14.441Z,16087
2024-05-09T11:31:09.948Z,16034
2024-05-09T11:32:09.134Z,15951
2024-05-09T11:33:09.087Z,15984
2024-05-09T11:34:09.088Z,16076
2024-05-09T11:35:09.029Z,15954
2024-05-09T11:36:09.048Z,15954
2024-05-09T11:37:09.067Z,15954
2024-05-09T11:38:09.033Z,15954
2024-05-09T11:39:09.042Z,15954
2024-05-09T11:40:13.946Z,15954
2024-05-09T11:41:09.045Z,15954
2024-05-09T11:42:09.040Z,15954
2024-05-09T11:43:09.082Z,15954
2024-05-09T11:44:09.040Z,15954
2024-05-09T11:45:09.035Z,15954
2024-05-09T11:46:09.231Z,15954
2024-05-09T11:47:09.111Z,15954
2024-05-09T11:48:09.098Z,15954
2024-05-09T11:49:09.424Z,15954
2024-05-09T11:50:13.110Z,15954
2024-05-09T11:51:09.076Z,15954
2024-05-09T11:52:09.146Z,15954
2024-05-09T11:53:09.064Z,15954
2024-05-09T11:54:09.053Z,15954
2024-05-09T11:55:09.179Z,15954
2024-05-09T11:56:09.049Z,15954
2024-05-09T11:57:09.040Z,15954
2024-05-09T11:58:09.141Z,15954
2024-05-09T11:59:09.044Z,15954
2024-05-09T12:01:09.146Z,15954
2024-05-09T12:02:09.181Z,15954
2024-05-09T12:03:09.084Z,15954
2024-05-09T12:04:09.353Z,15954
2024-05-09T12:05:09.149Z,15954
2024-05-09T12:06:09.106Z,15954
2024-05-09T12:07:12.220Z,15954
2024-05-09T12:08:09.036Z,15954
2024-05-09T12:09:09.040Z,15954
2024-05-09T12:10:14.245Z,15954
2024-05-09T12:11:09.129Z,15954
2024-05-09T12:12:09.056Z,15954
2024-05-09T12:13:09.131Z,15954
2024-05-09T12:14:09.030Z,15954
2024-05-09T12:15:09.031Z,15954
2024-05-09T12:16:09.280Z,15954
2024-05-09T12:17:09.048Z,15954
2024-05-09T12:18:09.228Z,15954
2024-05-09T12:19:09.140Z,15954
2024-05-09T12:20:14.091Z,15954
2024-05-09T12:21:09.050Z,15954
2024-05-09T12:22:09.241Z,15954
2024-05-09T12:23:10.290Z,15954
2024-05-09T12:24:09.041Z,15954
2024-05-09T12:25:09.301Z,15954
2024-05-09T12:26:09.059Z,15954
2024-05-09T12:27:09.039Z,15954
2024-05-09T12:28:09.277Z,15954
2024-05-09T12:29:09.040Z,15954
2024-05-09T12:30:11.415Z,15954
2024-05-09T12:31:09.066Z,15954
2024-05-09T12:32:09.157Z,15954
2024-05-09T12:33:09.651Z,15954
2024-05-09T12:34:09.107Z,15954
2024-05-09T12:35:09.039Z,15954
2024-05-09T12:36:09.052Z,15954
2024-05-09T12:37:09.184Z,15954
2024-05-09T12:38:09.061Z,15954
2024-05-09T12:39:09.040Z,15954
2024-05-09T12:40:18.398Z,15954
2024-05-09T12:41:09.092Z,15954
2024-05-09T12:42:10.920Z,15954
2024-05-09T12:43:10.301Z,15954
2024-05-09T12:44:09.036Z,15954
2024-05-09T12:45:09.030Z,15954
2024-05-09T12:46:09.095Z,15954
2024-05-09T12:47:09.041Z,15954
2024-05-09T12:48:09.090Z,15954
2024-05-09T12:49:09.487Z,15954
2024-05-09T12:50:18.750Z,15954
2024-05-09T12:51:09.050Z,15954
2024-05-09T12:52:09.236Z,15954
2024-05-09T12:53:09.156Z,15954
2024-05-09T12:54:09.041Z,15954
2024-05-09T12:55:09.130Z,15954
2024-05-09T12:56:09.565Z,15954
2024-05-09T12:57:09.041Z,15954
2024-05-09T12:58:09.181Z,15954
2024-05-09T12:59:09.045Z,15954
2024-05-09T13:00:14.237Z,15954
2024-05-09T13:01:09.099Z,15954
2024-05-09T13:02:09.385Z,15954
2024-05-09T13:03:09.200Z,15954
2024-05-09T13:04:09.166Z,15954
2024-05-09T13:05:09.312Z,15954
2024-05-09T13:06:09.047Z,15954
2024-05-09T13:07:09.180Z,15954
2024-05-09T13:08:09.031Z,15954
2024-05-09T13:09:09.036Z,15954
2024-05-09T13:10:13.762Z,15954
2024-05-09T13:11:09.072Z,15954
2024-05-09T13:12:09.034Z,15954
2024-05-09T13:13:09.237Z,15954
2024-05-09T13:14:09.031Z,15954
2024-05-09T13:15:09.048Z,15954
2024-05-09T13:16:09.075Z,15954
2024-05-09T13:17:09.060Z,15954
2024-05-09T13:18:09.080Z,15954
2024-05-09T13:19:09.082Z,15954
2024-05-09T13:20:14.930Z,15954
2024-05-09T13:21:09.041Z,15954
2024-05-09T13:22:09.108Z,15954
2024-05-09T13:23:09.030Z,15954
2024-05-09T13:24:09.040Z,15954
2024-05-09T13:25:09.106Z,15954
2024-05-09T13:26:09.032Z,15954
2024-05-09T13:27:09.051Z,15954
2024-05-09T13:28:09.116Z,15954
2024-05-09T13:29:09.041Z,15954
2024-05-09T13:30:14.644Z,15954
2024-05-09T13:31:09.073Z,15954
2024-05-09T13:32:09.084Z,15954
2024-05-09T13:33:09.398Z,15954
2024-05-09T13:34:09.110Z,15954
2024-05-09T13:35:09.049Z,15954
2024-05-09T13:36:09.030Z,15954